Time;durP1;ratioP1;P1;durP2;ratioP2;P2;SDS_P1;SDS_P2;PMS_P1;PMS_P2;Temp;Humidity;BMP_temperature;BMP_pressure;BME280_temperature;BME280_humidity;BME280_pressure;Samples;Min_cycle;Max_cycle;Signal;HPM_P1;HPM_P2
2023/09/16 04:02:59;;;;;;;4.80;3.10;;;13.60;97.30;;;;;;4967778;28;20849;-65
2023/09/16 04:05:25;;;;;;;2.27;2.17;;;13.60;97.30;;;;;;4956068;28;20431;-65
2023/09/16 04:07:50;;;;;;;2.37;2.10;;;13.60;97.30;;;;;;4975866;28;20190;-65
2023/09/16 04:10:16;;;;;;;2.37;2.03;;;13.60;97.30;;;;;;4959043;28;20206;-65
2023/09/16 04:12:41;;;;;;;5.27;3.53;;;13.60;97.30;;;;;;4972134;28;20553;-65
2023/09/16 04:15:07;;;;;;;5.20;2.17;;;13.50;97.30;;;;;;4968384;28;20269;-65
2023/09/16 04:17:33;;;;;;;5.43;3.60;;;13.50;97.30;;;;;;4969673;28;20716;-65
2023/09/16 04:19:58;;;;;;;3.07;2.63;;;13.50;97.30;;;;;;4970764;28;20181;-64
2023/09/16 04:22:24;;;;;;;4.43;2.37;;;13.50;97.30;;;;;;4969139;28;20234;-64
2023/09/16 04:24:49;;;;;;;2.37;2.17;;;13.50;97.30;;;;;;4970885;28;20209;-64
2023/09/16 04:27:15;;;;;;;3.23;2.27;;;13.50;97.30;;;;;;4972686;28;20257;-64
2023/09/16 04:29:41;;;;;;;3.00;2.80;;;13.50;97.30;;;;;;4964984;28;20202;-64
2023/09/16 04:32:06;;;;;;;2.50;2.30;;;13.50;97.30;;;;;;4973173;28;20202;-64
2023/09/16 04:34:32;;;;;;;7.57;4.30;;;13.50;97.30;;;;;;4973084;28;20186;-64
2023/09/16 04:36:59;;;;;;;2.17;2.00;;;13.50;97.30;;;;;;4971035;28;20185;-64
2023/09/16 04:39:27;;;;;;;4.10;2.53;;;13.50;97.30;;;;;;4973106;28;20923;-64
2023/09/16 04:41:53;;;;;;;2.00;1.93;;;13.50;97.30;;;;;;4963471;28;20445;-65
2023/09/16 04:44:20;;;;;;;3.97;2.43;;;13.50;97.30;;;;;;4971592;28;20436;-65
2023/09/16 04:46:46;;;;;;;6.00;3.37;;;13.50;97.30;;;;;;4971650;28;20206;-65
2023/09/16 04:49:12;;;;;;;3.50;2.80;;;13.50;97.30;;;;;;4972771;28;20457;-66
2023/09/16 04:51:38;;;;;;;4.20;3.40;;;13.50;97.30;;;;;;4971305;28;20458;-65
2023/09/16 04:54:05;;;;;;;2.37;2.20;;;13.40;97.30;;;;;;4971233;28;20182;-65
2023/09/16 04:56:30;;;;;;;6.50;2.67;;;13.40;97.30;;;;;;4970695;28;20500;-65
2023/09/16 04:58:56;;;;;;;6.07;3.77;;;13.40;97.30;;;;;;4969672;28;20429;-65
2023/09/16 05:01:22;;;;;;;6.77;5.00;;;13.40;97.30;;;;;;4969983;28;20225;-65
2023/09/16 05:03:47;;;;;;;3.67;2.17;;;13.40;97.30;;;;;;4971704;28;20261;-65
2023/09/16 05:06:13;;;;;;;7.07;3.27;;;13.40;97.30;;;;;;4971791;28;20183;-65
2023/09/16 05:08:38;;;;;;;5.20;3.37;;;13.40;97.30;;;;;;4971599;28;20179;-65
2023/09/16 05:11:04;;;;;;;2.30;2.10;;;13.40;97.30;;;;;;4971636;28;20206;-65
2023/09/16 05:13:30;;;;;;;4.80;3.00;;;13.40;97.30;;;;;;4970228;28;20204;-65
2023/09/16 05:15:55;;;;;;;3.00;1.77;;;13.40;97.30;;;;;;4970892;28;20171;-65
2023/09/16 05:18:21;;;;;;;6.37;3.67;;;13.40;97.30;;;;;;4962737;28;20185;-65
2023/09/16 05:20:50;;;;;;;4.60;2.67;;;13.40;97.30;;;;;;4967786;28;20206;-65
2023/09/16 05:23:16;;;;;;;3.87;2.30;;;13.40;97.30;;;;;;4969495;28;20233;-65
2023/09/16 05:25:46;;;;;;;4.40;3.00;;;13.40;97.30;;;;;;4968999;28;20434;-65
2023/09/16 05:28:12;;;;;;;3.37;3.20;;;13.40;97.30;;;;;;4969608;28;20741;-65
2023/09/16 05:30:37;;;;;;;7.87;3.13;;;13.40;97.30;;;;;;4968103;28;20470;-64
2023/09/16 05:33:03;;;;;;;4.30;4.00;;;13.40;97.30;;;;;;4968228;28;20170;-64
2023/09/16 05:35:29;;;;;;;3.67;2.40;;;13.50;97.30;;;;;;4968136;28;20329;-65
2023/09/16 05:37:54;;;;;;;5.40;3.17;;;13.50;97.30;;;;;;4967938;28;20193;-64
2023/09/16 05:40:20;;;;;;;2.40;2.17;;;13.50;97.30;;;;;;4967706;28;20220;-65
2023/09/16 05:42:45;;;;;;;4.47;4.10;;;13.50;97.30;;;;;;4969308;28;20198;-65
2023/09/16 05:45:11;;;;;;;4.20;2.73;;;13.60;97.30;;;;;;4967672;28;20181;-66
2023/09/16 05:47:37;;;;;;;2.60;2.40;;;13.60;97.30;;;;;;4968143;28;20190;-65
2023/09/16 05:50:03;;;;;;;3.10;2.90;;;13.60;97.30;;;;;;4967943;28;20198;-65
2023/09/16 05:52:29;;;;;;;9.50;2.60;;;13.70;97.30;;;;;;4968734;28;20195;-65
2023/09/16 05:54:54;;;;;;;3.53;3.20;;;13.70;97.30;;;;;;4971350;28;20649;-66
2023/09/16 05:57:20;;;;;;;4.00;3.73;;;13.70;97.30;;;;;;4970175;28;20425;-65
2023/09/16 05:59:45;;;;;;;3.43;2.93;;;13.80;97.30;;;;;;4969852;28;20264;-65
2023/09/16 06:02:11;;;;;;;2.83;2.70;;;13.80;97.30;;;;;;4970131;28;20230;-65
2023/09/16 06:04:37;;;;;;;3.50;2.83;;;13.80;97.30;;;;;;4971452;28;20304;-65
2023/09/16 06:07:02;;;;;;;1.60;1.50;;;13.90;97.30;;;;;;4969778;28;20766;-65
2023/09/16 06:09:28;;;;;;;3.00;1.70;;;13.90;97.30;;;;;;4969834;28;20213;-65
2023/09/16 06:11:53;;;;;;;3.10;2.17;;;13.90;97.30;;;;;;4969414;28;20198;-65
2023/09/16 06:14:19;;;;;;;6.20;3.30;;;14.00;97.30;;;;;;4971194;28;20175;-65
2023/09/16 06:16:44;;;;;;;4.27;3.67;;;14.00;97.30;;;;;;4970821;28;20270;-65
2023/09/16 06:19:10;;;;;;;5.53;3.03;;;14.10;97.30;;;;;;4970358;28;20709;-65
2023/09/16 06:21:36;;;;;;;2.87;2.67;;;14.10;97.30;;;;;;4970829;28;20207;-64
2023/09/16 06:24:01;;;;;;;6.40;3.07;;;14.20;97.30;;;;;;4970876;28;20189;-65
2023/09/16 06:26:27;;;;;;;9.90;2.90;;;14.20;97.30;;;;;;4971084;28;20170;-65
2023/09/16 06:28:53;;;;;;;2.60;2.23;;;14.30;97.30;;;;;;4969433;28;20185;-64
2023/09/16 06:31:18;;;;;;;5.83;2.47;;;14.30;97.30;;;;;;4969465;28;20689;-65
2023/09/16 06:33:44;;;;;;;2.93;2.50;;;14.40;97.30;;;;;;4969926;28;20186;-65
2023/09/16 06:36:10;;;;;;;2.70;2.50;;;14.50;97.30;;;;;;4969513;28;20174;-64
2023/09/16 06:38:35;;;;;;;2.60;2.07;;;14.50;97.30;;;;;;4970893;28;20261;-64
2023/09/16 06:41:01;;;;;;;2.80;1.73;;;14.60;97.30;;;;;;4970726;28;20198;-64
2023/09/16 06:43:26;;;;;;;3.87;2.83;;;14.70;97.30;;;;;;4969789;28;20697;-64
2023/09/16 06:45:52;;;;;;;5.13;2.83;;;14.80;97.30;;;;;;4970736;28;20186;-64
2023/09/16 06:48:17;;;;;;;2.40;2.23;;;14.80;97.30;;;;;;4969791;28;20171;-64
2023/09/16 06:50:43;;;;;;;8.10;3.37;;;14.90;97.30;;;;;;4970877;28;20721;-65
2023/09/16 06:53:09;;;;;;;3.00;2.20;;;15.00;97.30;;;;;;4969118;28;20666;-65
2023/09/16 06:55:35;;;;;;;3.13;2.83;;;15.10;97.30;;;;;;4969392;28;20803;-65
2023/09/16 06:58:04;;;;;;;7.90;2.97;;;15.20;97.30;;;;;;4969518;28;20189;-64
2023/09/16 07:00:30;;;;;;;5.07;2.50;;;15.20;97.30;;;;;;4971892;28;20678;-65
2023/09/16 07:02:57;;;;;;;4.70;3.43;;;15.30;97.30;;;;;;4974765;28;20551;-64
2023/09/16 07:05:23;;;;;;;2.40;2.27;;;15.40;97.30;;;;;;4973547;28;20433;-64
2023/09/16 07:07:48;;;;;;;2.93;2.67;;;15.50;97.30;;;;;;4974633;28;20425;-64
2023/09/16 07:10:14;;;;;;;4.00;3.17;;;15.60;97.30;;;;;;4974700;28;20217;-64
2023/09/16 07:12:39;;;;;;;4.23;1.80;;;15.70;97.30;;;;;;4974943;28;20538;-65
2023/09/16 07:15:05;;;;;;;2.83;2.60;;;15.80;97.30;;;;;;4972106;28;20185;-64
2023/09/16 07:17:33;;;;;;;6.57;3.13;;;15.90;97.30;;;;;;4964675;28;20187;-64
2023/09/16 07:19:59;;;;;;;3.77;2.70;;;16.00;97.30;;;;;;4968889;28;20444;-64
2023/09/16 07:22:25;;;;;;;4.70;3.10;;;16.00;97.30;;;;;;4972749;28;20524;-63
2023/09/16 07:24:51;;;;;;;3.70;2.13;;;16.10;97.30;;;;;;4961001;28;20572;-64
2023/09/16 07:27:17;;;;;;;8.10;3.13;;;16.20;97.30;;;;;;4969911;28;20425;-66
2023/09/16 07:29:43;;;;;;;5.13;4.30;;;16.30;97.30;;;;;;4969085;28;20289;-65
2023/09/16 07:32:09;;;;;;;2.60;2.33;;;16.40;97.30;;;;;;4974233;28;21005;-65
2023/09/16 07:34:35;;;;;;;20.43;3.17;;;16.50;97.30;;;;;;4970903;28;20434;-63
2023/09/16 07:37:03;;;;;;;3.23;2.10;;;16.60;97.30;;;;;;4971063;28;20179;-63
2023/09/16 07:39:28;;;;;;;3.30;3.10;;;16.70;97.30;;;;;;4974328;28;20590;-64
2023/09/16 07:41:54;;;;;;;3.00;2.57;;;16.70;97.30;;;;;;4973846;28;20456;-64
2023/09/16 07:44:20;;;;;;;2.40;2.23;;;16.80;97.30;;;;;;4968927;28;20675;-64
2023/09/16 07:46:48;;;;;;;2.17;2.00;;;16.80;97.30;;;;;;4971363;28;20310;-64
2023/09/16 07:49:16;;;;;;;3.03;2.67;;;16.90;97.30;;;;;;4969311;28;20249;-64
2023/09/16 07:51:45;;;;;;;4.10;2.07;;;17.00;97.30;;;;;;4973576;28;20450;-64
2023/09/16 07:54:13;;;;;;;3.43;1.97;;;17.00;97.30;;;;;;4972629;28;20426;-63
2023/09/16 07:56:38;;;;;;;1.67;1.60;;;17.10;97.30;;;;;;4971943;28;20426;-64
2023/09/16 07:59:04;;;;;;;9.50;4.90;;;17.20;97.30;;;;;;4968706;28;20788;-64
2023/09/16 08:01:30;;;;;;;1.97;1.70;;;17.20;97.30;;;;;;4967297;28;20702;-64
2023/09/16 08:03:56;;;;;;;3.57;2.73;;;17.30;97.30;;;;;;4973361;28;20263;-64
2023/09/16 08:06:21;;;;;;;6.97;3.20;;;17.40;97.30;;;;;;4971920;28;20646;-64
2023/09/16 08:08:49;;;;;;;5.43;2.83;;;17.40;97.30;;;;;;4969854;28;20445;-63
2023/09/16 08:11:15;;;;;;;1.47;1.37;;;17.50;97.30;;;;;;4970133;28;20729;-63
2023/09/16 08:13:41;;;;;;;4.00;2.73;;;17.60;97.30;;;;;;4967227;28;20509;-64
2023/09/16 08:16:06;;;;;;;3.30;2.00;;;17.70;97.30;;;;;;4967571;28;20859;-64
2023/09/16 08:18:32;;;;;;;8.83;2.67;;;17.80;97.30;;;;;;4964451;28;20613;-65
2023/09/16 08:20:59;;;;;;;4.10;2.83;;;17.90;97.30;;;;;;4968508;28;20686;-65
2023/09/16 08:23:24;;;;;;;3.20;1.70;;;18.00;97.30;;;;;;4971560;28;20187;-65
2023/09/16 08:25:50;;;;;;;6.13;2.73;;;18.10;97.30;;;;;;4965079;28;20425;-64
2023/09/16 08:28:15;;;;;;;4.50;2.20;;;18.20;97.30;;;;;;4971424;28;20185;-64
2023/09/16 08:30:41;;;;;;;2.60;2.40;;;18.30;97.30;;;;;;4965767;28;20211;-64
2023/09/16 08:33:07;;;;;;;2.00;1.33;;;18.40;97.30;;;;;;4969413;28;20186;-64
2023/09/16 08:35:32;;;;;;;4.43;1.87;;;18.40;97.30;;;;;;4972260;28;20817;-64
2023/09/16 08:38:00;;;;;;;3.60;1.80;;;18.50;97.30;;;;;;4971231;28;20230;-63
2023/09/16 08:40:29;;;;;;;3.00;2.00;;;18.60;97.30;;;;;;4965612;28;20226;-63
2023/09/16 08:43:34;;;;;;;2.13;1.97;;;18.70;97.30;;;;;;4973021;28;20511;-63
2023/09/16 08:46:02;;;;;;;1.27;1.23;;;18.80;97.30;;;;;;4945185;28;20429;-64
2023/09/16 08:48:34;;;;;;;1.67;1.57;;;19.00;97.30;;;;;;4969879;28;20946;-64
2023/09/16 08:51:02;;;;;;;1.37;1.20;;;19.10;97.30;;;;;;4976579;28;20853;-64
2023/09/16 08:53:29;;;;;;;1.97;1.87;;;19.10;97.30;;;;;;4971277;28;20946;-64
2023/09/16 08:55:55;;;;;;;1.67;1.57;;;19.30;97.30;;;;;;4964644;28;20426;-64
2023/09/16 08:58:21;;;;;;;2.80;2.03;;;19.30;97.30;;;;;;4969596;28;20565;-64
2023/09/16 09:00:47;;;;;;;3.77;1.90;;;19.40;97.30;;;;;;4980723;28;20925;-64
2023/09/16 09:03:13;;;;;;;2.60;1.70;;;19.50;97.30;;;;;;4974235;28;20962;-63
2023/09/16 09:05:39;;;;;;;2.50;2.00;;;19.60;97.30;;;;;;4970313;28;20670;-64
2023/09/16 09:08:09;;;;;;;3.00;1.70;;;19.70;97.30;;;;;;4970243;28;20191;-64
2023/09/16 09:10:37;;;;;;;3.33;2.13;;;19.70;97.30;;;;;;4963996;28;20848;-64
2023/09/16 09:13:05;;;;;;;1.90;1.80;;;19.80;97.30;;;;;;4968734;28;20449;-68
2023/09/16 09:15:32;;;;;;;2.87;1.73;;;19.80;97.30;;;;;;4970060;28;20433;-64
2023/09/16 09:17:58;;;;;;;2.60;2.43;;;19.90;97.30;;;;;;4981933;28;20489;-64
2023/09/16 09:20:28;;;;;;;1.60;1.50;;;19.90;97.30;;;;;;4964556;28;21899;-64
2023/09/16 09:22:54;;;;;;;2.73;2.53;;;19.90;97.30;;;;;;4967304;28;20945;-65
2023/09/16 09:25:25;;;;;;;6.03;2.60;;;20.00;97.30;;;;;;4967672;28;20435;-65
2023/09/16 09:27:52;;;;;;;1.77;1.67;;;20.10;97.30;;;;;;4965907;28;20425;-64
2023/09/16 09:30:26;;;;;;;2.70;2.53;;;20.20;97.30;;;;;;4958729;28;20517;-64
2023/09/16 09:32:55;;;;;;;2.30;2.10;;;20.30;97.30;;;;;;4967033;28;20432;-65
2023/09/16 09:35:22;;;;;;;1.80;1.50;;;20.30;97.30;;;;;;4967079;28;20461;-65
2023/09/16 09:37:48;;;;;;;2.40;1.70;;;20.50;97.30;;;;;;4977095;28;20933;-64
2023/09/16 09:40:14;;;;;;;1.90;1.80;;;20.60;97.30;;;;;;4962125;28;20410;-64
2023/09/16 09:42:43;;;;;;;1.67;1.57;;;20.70;97.30;;;;;;4970323;28;20438;-64
2023/09/16 09:45:09;;;;;;;1.47;1.47;;;20.80;97.30;;;;;;4970537;28;20480;-65
2023/09/16 09:47:37;;;;;;;4.50;3.33;;;20.80;97.30;;;;;;4969355;28;20421;-65
2023/09/16 09:50:04;;;;;;;3.03;2.20;;;20.90;97.30;;;;;;4968166;28;20461;-65
2023/09/16 09:52:31;;;;;;;4.20;2.07;;;21.00;97.30;;;;;;4974463;28;20424;-65
2023/09/16 09:54:57;;;;;;;3.10;2.20;;;21.10;97.30;;;;;;4971730;28;20430;-66
2023/09/16 09:57:23;;;;;;;1.80;1.70;;;21.20;97.30;;;;;;4967886;28;20418;-65
2023/09/16 09:59:49;;;;;;;2.60;2.40;;;21.30;97.30;;;;;;4974490;28;20432;-65
2023/09/16 10:02:15;;;;;;;3.13;1.73;;;21.50;97.30;;;;;;4984984;28;20579;-65
2023/09/16 10:04:41;;;;;;;2.37;1.70;;;21.60;97.30;;;;;;4984085;28;20194;-65
2023/09/16 10:07:07;;;;;;;2.97;1.70;;;21.70;97.30;;;;;;4979082;28;20186;-65
2023/09/16 10:09:33;;;;;;;2.13;1.83;;;21.80;97.30;;;;;;4972256;28;20468;-65
2023/09/16 10:12:00;;;;;;;2.00;1.77;;;21.80;97.30;;;;;;4981345;28;20441;-65
2023/09/16 10:14:25;;;;;;;2.20;2.07;;;21.90;96.60;;;;;;4977755;23;20242;-69
2023/09/16 10:16:52;;;;;;;3.77;2.43;;;21.90;97.00;;;;;;4967594;28;20442;-71
2023/09/16 10:19:18;;;;;;;1.77;1.67;;;22.00;97.10;;;;;;4960212;28;20195;-70
2023/09/16 10:21:45;;;;;;;2.47;1.73;;;22.10;96.90;;;;;;4963655;28;20500;-70
2023/09/16 10:24:10;;;;;;;2.00;1.50;;;22.20;95.50;;;;;;4965614;28;20464;-70
2023/09/16 10:26:36;;;;;;;2.03;1.50;;;22.30;95.60;;;;;;4961328;28;20458;-69
2023/09/16 10:29:03;;;;;;;2.63;2.27;;;22.40;95.80;;;;;;4969045;28;20597;-69
2023/09/16 10:31:30;;;;;;;4.00;1.73;;;22.50;95.60;;;;;;4969460;28;20218;-70
2023/09/16 10:33:57;;;;;;;4.53;1.80;;;22.60;95.40;;;;;;4969283;28;20426;-70
2023/09/16 10:36:26;;;;;;;2.60;2.27;;;22.70;95.20;;;;;;4961691;28;20945;-71
2023/09/16 10:38:54;;;;;;;7.17;2.07;;;22.80;94.80;;;;;;4969793;28;20505;-70
2023/09/16 10:41:21;;;;;;;1.57;1.47;;;22.90;93.90;;;;;;4949627;28;20966;-69
2023/09/16 10:43:47;;;;;;;3.03;1.83;;;23.00;93.90;;;;;;4950335;28;20571;-69
2023/09/16 10:46:13;;;;;;;1.00;1.00;;;23.10;93.80;;;;;;4967783;28;20414;-69
2023/09/16 10:48:39;;;;;;;2.50;2.30;;;23.10;93.50;;;;;;4969745;28;20474;-70
2023/09/16 10:51:14;;;;;;;4.40;1.63;;;23.20;93.20;;;;;;4951633;28;20477;-69
2023/09/16 10:53:42;;;;;;;2.87;1.40;;;23.20;92.80;;;;;;4955561;28;20421;-69
2023/09/16 10:56:08;;;;;;;2.50;1.77;;;23.30;94.10;;;;;;4959504;28;20430;-69
2023/09/16 10:58:50;;;;;;;2.43;1.73;;;23.40;93.00;;;;;;4962625;28;20422;-69
2023/09/16 11:01:27;;;;;;;2.03;1.90;;;23.60;93.10;;;;;;4969526;28;20482;-69
2023/09/16 11:03:57;;;;;;;2.17;1.73;;;23.70;92.30;;;;;;4962627;28;20517;-70
2023/09/16 11:06:23;;;;;;;2.20;2.10;;;23.80;92.40;;;;;;4958259;28;20433;-69
2023/09/16 11:08:49;;;;;;;1.77;1.23;;;23.90;91.70;;;;;;4955202;28;20441;-70
2023/09/16 11:11:15;;;;;;;4.50;2.57;;;24.00;91.60;;;;;;4969091;28;20317;-70
2023/09/16 11:13:41;;;;;;;3.53;2.50;;;24.10;91.50;;;;;;4964565;28;20180;-71
2023/09/16 11:16:10;;;;;;;3.13;2.33;;;24.20;91.10;;;;;;4958151;28;20450;-70
2023/09/16 11:18:40;;;;;;;3.30;1.83;;;24.30;90.30;;;;;;4969489;28;20506;-70
2023/09/16 11:21:05;;;;;;;1.47;1.43;;;24.40;90.40;;;;;;4961410;28;20473;-70
2023/09/16 11:23:31;;;;;;;1.73;1.63;;;24.50;90.60;;;;;;4961456;28;20449;-70
2023/09/16 11:25:59;;;;;;;1.93;1.83;;;24.60;89.30;;;;;;4962550;28;20183;-70
2023/09/16 11:28:25;;;;;;;1.60;1.40;;;24.70;90.00;;;;;;4968532;28;20194;-70
2023/09/16 11:30:55;;;;;;;1.93;1.83;;;24.80;89.70;;;;;;4969368;28;20469;-70
2023/09/16 11:33:35;;;;;;;2.03;1.53;;;24.90;89.70;;;;;;4969267;28;20457;-70
2023/09/16 11:36:12;;;;;;;2.70;2.50;;;25.00;89.50;;;;;;4969358;28;20478;-70
2023/09/16 11:38:39;;;;;;;1.83;1.73;;;25.10;89.10;;;;;;4962360;28;20416;-70
2023/09/16 11:41:09;;;;;;;1.33;1.30;;;25.20;89.40;;;;;;4950790;28;20454;-70
2023/09/16 11:43:37;;;;;;;2.00;1.33;;;25.30;89.10;;;;;;4954854;28;20425;-70
2023/09/16 11:46:02;;;;;;;3.93;2.63;;;25.40;88.80;;;;;;4967622;28;20477;-71
2023/09/16 11:48:50;;;;;;;2.40;1.53;;;25.50;88.40;;;;;;4963417;28;20433;-70
2023/09/16 11:51:17;;;;;;;2.00;1.90;;;25.50;87.50;;;;;;4970166;28;20699;-70
2023/09/16 11:53:44;;;;;;;1.17;1.13;;;25.60;87.30;;;;;;4966522;28;20460;-70
2023/09/16 11:56:10;;;;;;;2.00;1.90;;;25.70;87.20;;;;;;4960225;28;20427;-70
2023/09/16 11:58:35;;;;;;;1.20;1.10;;;25.70;86.20;;;;;;4960944;28;20801;-71
2023/09/16 12:01:02;;;;;;;1.60;1.50;;;25.80;87.20;;;;;;4959253;28;20293;-71
2023/09/16 12:03:28;;;;;;;1.70;1.70;;;25.90;87.20;;;;;;4969321;28;20198;-71
2023/09/16 12:05:54;;;;;;;2.37;1.47;;;26.00;85.40;;;;;;4953555;28;20486;-70
2023/09/16 12:08:20;;;;;;;2.27;1.47;;;26.10;85.50;;;;;;4947554;28;20443;-70
2023/09/16 12:10:46;;;;;;;1.43;1.03;;;26.20;83.00;;;;;;4952187;28;20467;-69
2023/09/16 12:13:11;;;;;;;1.50;1.40;;;26.30;82.50;;;;;;4953445;28;20214;-70
2023/09/16 12:15:37;;;;;;;2.00;1.57;;;26.40;83.50;;;;;;4953066;28;20226;-70
2023/09/16 12:18:03;;;;;;;1.30;1.20;;;26.50;83.70;;;;;;4950259;28;20274;-70
2023/09/16 12:20:31;;;;;;;2.90;1.67;;;26.60;83.90;;;;;;4955730;28;20724;-70
2023/09/16 12:22:58;;;;;;;1.50;1.43;;;26.70;82.70;;;;;;4952322;28;20429;-69
2023/09/16 12:25:26;;;;;;;2.20;2.00;;;26.70;81.50;;;;;;4956414;28;20485;-69
2023/09/16 12:27:52;;;;;;;1.50;1.27;;;26.80;80.60;;;;;;4951620;28;20458;-70
2023/09/16 12:30:17;;;;;;;1.73;1.37;;;26.80;82.10;;;;;;4952732;28;21169;-70
2023/09/16 12:32:50;;;;;;;1.50;1.50;;;26.90;82.50;;;;;;4953276;28;20187;-70
2023/09/16 12:35:16;;;;;;;1.77;1.73;;;27.00;81.50;;;;;;4950394;28;20187;-69
2023/09/16 12:37:42;;;;;;;2.03;1.90;;;27.10;82.60;;;;;;4952053;28;20427;-70
2023/09/16 12:40:08;;;;;;;1.30;1.20;;;27.20;82.40;;;;;;4959092;28;20667;-69
2023/09/16 12:42:34;;;;;;;1.30;1.20;;;27.20;82.40;;;;;;4950629;28;20201;-70
2023/09/16 12:45:00;;;;;;;2.17;1.50;;;27.10;80.40;;;;;;4951772;28;20462;-70
2023/09/16 12:47:26;;;;;;;3.23;1.67;;;27.10;80.70;;;;;;4950430;28;20593;-70
2023/09/16 12:49:52;;;;;;;1.43;1.43;;;27.10;82.00;;;;;;4958063;28;20462;-70
2023/09/16 12:52:18;;;;;;;2.80;2.10;;;27.20;82.80;;;;;;4956597;28;20744;-69
2023/09/16 12:54:46;;;;;;;1.30;1.20;;;27.40;82.60;;;;;;4950862;28;20974;-69
2023/09/16 12:57:13;;;;;;;4.43;1.97;;;27.40;81.90;;;;;;4949654;28;20207;-70
2023/09/16 12:59:55;;;;;;;1.40;1.30;;;27.50;81.60;;;;;;4952544;28;20415;-70
2023/09/16 13:02:21;;;;;;;2.73;1.93;;;27.60;82.20;;;;;;4961913;28;21002;-70
2023/09/16 13:04:46;;;;;;;2.30;1.03;;;27.70;81.90;;;;;;4950002;28;20427;-71
2023/09/16 13:07:12;;;;;;;2.30;1.73;;;27.80;81.20;;;;;;4949366;28;20199;-70
2023/09/16 13:09:38;;;;;;;3.20;1.87;;;27.90;81.20;;;;;;4948062;28;20203;-70
2023/09/16 13:12:04;;;;;;;1.90;1.33;;;28.10;79.60;;;;;;4950001;28;20213;-70
2023/09/16 13:14:30;;;;;;;2.17;2.03;;;28.10;78.10;;;;;;4950108;28;20266;-70
2023/09/16 13:16:55;;;;;;;3.87;1.90;;;28.20;79.50;;;;;;4951310;28;20442;-71
2023/09/16 13:19:21;;;;;;;1.50;1.47;;;28.20;79.10;;;;;;4951290;28;20175;-70
2023/09/16 13:21:47;;;;;;;1.07;1.03;;;28.20;78.30;;;;;;4951581;28;20674;-71
2023/09/16 13:24:13;;;;;;;2.90;1.40;;;28.10;78.60;;;;;;4950628;28;20524;-70
2023/09/16 13:26:54;;;;;;;3.87;1.70;;;28.10;78.30;;;;;;4956615;28;20940;-70
2023/09/16 13:29:19;;;;;;;4.80;3.23;;;28.00;77.70;;;;;;4952505;28;20179;-70
2023/09/16 13:31:45;;;;;;;2.70;2.50;;;28.00;78.60;;;;;;4944828;28;20501;-72
2023/09/16 13:34:11;;;;;;;1.87;1.77;;;28.00;78.50;;;;;;4950408;28;20178;-71
2023/09/16 13:36:41;;;;;;;4.50;1.40;;;28.10;77.70;;;;;;4951105;28;20183;-69
2023/09/16 13:39:10;;;;;;;1.57;1.47;;;28.00;78.80;;;;;;4951647;28;20187;-71
2023/09/16 13:41:36;;;;;;;1.60;1.37;;;28.10;79.40;;;;;;4950671;28;21106;-68
2023/09/16 13:44:01;;;;;;;1.30;0.90;;;28.30;79.60;;;;;;4950348;28;20438;-68
2023/09/16 13:46:27;;;;;;;1.30;1.00;;;28.40;78.60;;;;;;4949354;28;20180;-68
2023/09/16 13:48:54;;;;;;;1.80;1.67;;;28.60;76.70;;;;;;4945418;28;20272;-68
2023/09/16 13:51:21;;;;;;;3.00;2.03;;;28.70;75.90;;;;;;4951411;28;20510;-68
2023/09/16 13:53:46;;;;;;;1.83;1.40;;;28.70;76.20;;;;;;4971560;28;20414;-70
2023/09/16 13:56:13;;;;;;;1.93;1.33;;;28.80;77.30;;;;;;4971684;28;20425;-70
2023/09/16 13:58:40;;;;;;;3.50;2.30;;;28.90;77.70;;;;;;4970958;28;20177;-70
2023/09/16 14:01:06;;;;;;;0.97;0.87;;;29.10;77.50;;;;;;4970848;28;20977;-70
2023/09/16 14:03:32;;;;;;;2.63;2.00;;;29.10;77.10;;;;;;4965953;28;20418;-70
2023/09/16 14:05:58;;;;;;;1.73;1.57;;;29.10;76.50;;;;;;4944021;28;20183;-70
2023/09/16 14:08:23;;;;;;;3.03;1.97;;;29.20;76.10;;;;;;4957220;28;20430;-69
2023/09/16 14:10:49;;;;;;;1.73;1.40;;;29.00;74.50;;;;;;4946057;28;20826;-69
2023/09/16 14:13:14;;;;;;;1.60;1.30;;;28.90;75.30;;;;;;4956662;28;20210;-69
2023/09/16 14:15:40;;;;;;;0.97;0.90;;;28.90;75.90;;;;;;4960982;28;20222;-69
2023/09/16 14:18:07;;;;;;;1.67;1.57;;;29.00;76.10;;;;;;4961665;28;20815;-69
2023/09/16 14:20:33;;;;;;;1.73;1.63;;;29.00;74.80;;;;;;4954562;28;20453;-69
2023/09/16 14:23:05;;;;;;;3.50;1.57;;;28.90;75.20;;;;;;4961337;28;20489;-69
2023/09/16 14:25:33;;;;;;;1.47;1.30;;;28.90;75.20;;;;;;4950840;28;20423;-69
2023/09/16 14:27:59;;;;;;;1.03;1.00;;;29.00;75.90;;;;;;4943057;28;20809;-69
2023/09/16 14:30:24;;;;;;;1.67;1.57;;;29.10;75.90;;;;;;4948881;28;21025;-71
2023/09/16 14:32:50;;;;;;;1.63;1.53;;;29.20;75.50;;;;;;4948729;28;20219;-69
2023/09/16 14:35:16;;;;;;;2.77;1.77;;;29.20;75.00;;;;;;4949411;28;20186;-69
2023/09/16 14:37:43;;;;;;;4.50;2.23;;;29.30;74.50;;;;;;4954365;28;20175;-70
2023/09/16 14:40:10;;;;;;;0.80;0.80;;;29.30;74.90;;;;;;4966311;28;20182;-70
2023/09/16 14:42:36;;;;;;;1.60;1.43;;;29.20;74.70;;;;;;4958840;28;20473;-70
2023/09/16 14:45:03;;;;;;;1.43;1.30;;;29.20;74.40;;;;;;4957209;28;20466;-70
2023/09/16 14:47:28;;;;;;;1.83;1.20;;;29.10;72.80;;;;;;4951443;28;20426;-70
2023/09/16 14:49:54;;;;;;;4.40;1.77;;;29.00;73.20;;;;;;4962945;28;20458;-70
2023/09/16 14:52:20;;;;;;;1.70;1.70;;;29.00;73.80;;;;;;4957411;28;20195;-68
2023/09/16 14:54:46;;;;;;;1.67;1.63;;;29.00;74.80;;;;;;4959648;28;20267;-69
2023/09/16 14:57:12;;;;;;;1.73;1.37;;;29.10;74.40;;;;;;4963673;28;20501;-70
2023/09/16 14:59:37;;;;;;;1.47;1.13;;;29.10;74.60;;;;;;4966983;28;20726;-70
2023/09/16 15:02:03;;;;;;;1.30;1.20;;;29.10;73.80;;;;;;4949105;28;20574;-71
2023/09/16 15:04:29;;;;;;;3.73;2.10;;;29.20;74.50;;;;;;4958829;28;20682;-69
2023/09/16 15:06:54;;;;;;;1.00;0.97;;;29.20;73.80;;;;;;4954658;28;20800;-70
2023/09/16 15:09:21;;;;;;;1.33;1.30;;;29.30;74.60;;;;;;4954958;28;20190;-69
2023/09/16 15:11:47;;;;;;;2.17;1.40;;;29.30;73.60;;;;;;4961417;28;20662;-70
2023/09/16 15:14:13;;;;;;;1.13;1.03;;;29.40;74.60;;;;;;4961575;28;20418;-70
2023/09/16 15:16:39;;;;;;;1.87;1.00;;;29.50;74.80;;;;;;4962725;28;20414;-71
2023/09/16 15:19:04;;;;;;;2.93;1.70;;;29.50;75.20;;;;;;4969407;28;20422;-71
2023/09/16 15:21:30;;;;;;;2.13;1.10;;;29.60;75.40;;;;;;4971329;28;20198;-71
2023/09/16 15:23:55;;;;;;;2.00;1.57;;;29.70;75.70;;;;;;4973456;28;20697;-71
2023/09/16 15:26:21;;;;;;;1.80;1.37;;;29.70;75.10;;;;;;4958796;28;20718;-69
2023/09/16 15:28:48;;;;;;;3.37;1.77;;;29.80;75.40;;;;;;4962321;28;20183;-69
2023/09/16 15:31:14;;;;;;;1.23;1.10;;;29.80;73.80;;;;;;4953420;28;20262;-70
2023/09/16 15:33:40;;;;;;;1.33;1.10;;;29.90;75.10;;;;;;4972181;28;20441;-69
2023/09/16 15:36:06;;;;;;;1.27;1.17;;;29.90;75.00;;;;;;4972676;28;20476;-70
2023/09/16 15:38:32;;;;;;;2.20;1.70;;;29.90;74.20;;;;;;4964815;28;20438;-70
2023/09/16 15:41:03;;;;;;;1.90;1.80;;;29.90;73.90;;;;;;4954937;28;20203;-69
2023/09/16 15:43:30;;;;;;;1.50;1.47;;;29.90;73.80;;;;;;4954758;28;20179;-69
2023/09/16 15:46:06;;;;;;;1.20;1.20;;;29.90;73.50;;;;;;4955152;28;20540;-69
2023/09/16 15:48:32;;;;;;;1.50;1.43;;;29.90;72.80;;;;;;4963699;28;20417;-70
2023/09/16 15:50:57;;;;;;;1.83;1.40;;;29.80;73.10;;;;;;4972794;28;20465;-71
2023/09/16 15:53:27;;;;;;;1.87;1.37;;;29.80;73.50;;;;;;4970626;28;20658;-69
2023/09/16 15:55:55;;;;;;;1.67;1.57;;;29.70;73.00;;;;;;4964907;28;20733;-68
2023/09/16 15:58:21;;;;;;;1.60;1.47;;;29.60;72.00;;;;;;4973854;28;20468;-69
2023/09/16 16:00:52;;;;;;;1.07;0.97;;;29.30;72.10;;;;;;4973758;28;20488;-68
2023/09/16 16:03:19;;;;;;;1.77;1.43;;;29.10;72.60;;;;;;4965895;28;20449;-69
2023/09/16 16:05:45;;;;;;;1.50;1.10;;;28.80;73.00;;;;;;4957274;28;21511;-68
2023/09/16 16:08:18;;;;;;;1.47;1.20;;;28.70;73.40;;;;;;4954207;28;20497;-68
2023/09/16 16:10:45;;;;;;;1.47;1.37;;;28.60;74.20;;;;;;4945845;28;20219;-68
2023/09/16 16:13:12;;;;;;;1.53;1.43;;;28.60;74.90;;;;;;4952748;28;21176;-68
2023/09/16 16:15:38;;;;;;;2.57;1.47;;;28.70;75.50;;;;;;4979354;23;20535;-88
2023/09/16 16:18:03;;;;;;;1.30;1.20;;;28.70;78.10;;;;;;5012962;28;20456;-88
2023/09/16 16:20:33;;;;;;;2.00;1.53;;;28.70;79.10;;;;;;5016656;28;20192;-89
2023/09/16 16:22:59;;;;;;;1.07;1.03;;;28.70;79.60;;;;;;5017183;28;20169;-87
2023/09/16 16:25:29;;;;;;;1.40;1.30;;;28.70;80.30;;;;;;5011445;28;20443;-87
2023/09/16 16:27:55;;;;;;;2.73;1.87;;;28.70;80.90;;;;;;5009498;28;20455;-87
2023/09/16 16:30:24;;;;;;;1.10;1.03;;;28.70;81.00;;;;;;5013526;28;20460;-87
2023/09/16 16:32:50;;;;;;;1.90;1.17;;;28.60;81.30;;;;;;5017182;23;20264;-73
2023/09/16 16:35:16;;;;;;;2.60;1.50;;;28.60;81.30;;;;;;5011521;28;20446;-72
2023/09/16 16:37:42;;;;;;;1.10;1.00;;;28.50;81.10;;;;;;5011897;28;20466;-72
2023/09/16 16:40:10;;;;;;;4.83;1.60;;;28.50;80.90;;;;;;5010503;28;20495;-71
2023/09/16 16:42:35;;;;;;;2.13;1.40;;;28.40;81.40;;;;;;5010392;28;20169;-72
2023/09/16 16:45:01;;;;;;;1.83;1.50;;;28.30;81.70;;;;;;5010623;28;20993;-72
2023/09/16 16:47:27;;;;;;;1.50;1.40;;;28.10;82.10;;;;;;5009016;28;20184;-71